createdAt,value
2022-09-30T00:00:20.057Z,15.30
2022-09-30T00:01:19.538Z,15.60
2022-09-30T00:02:19.496Z,12.50
2022-09-30T00:03:19.555Z,12.60
2022-09-30T00:04:19.503Z,11.10
2022-09-30T00:05:19.474Z,11.40
2022-09-30T00:06:19.451Z,11.40
2022-09-30T00:07:19.475Z,12.20
2022-09-30T00:08:20.135Z,13.00
2022-09-30T00:09:19.628Z,11.50
2022-09-30T00:10:19.592Z,12.30
2022-09-30T00:11:19.404Z,14.50
2022-09-30T00:12:19.384Z,14.00
2022-09-30T00:13:19.383Z,12.30
2022-09-30T00:14:19.364Z,12.70
2022-09-30T00:15:19.371Z,14.00
2022-09-30T00:16:19.385Z,13.30
2022-09-30T00:17:19.342Z,12.80
2022-09-30T00:18:19.705Z,12.10
2022-09-30T00:19:19.376Z,12.60
2022-09-30T00:20:19.293Z,12.30
2022-09-30T00:21:19.323Z,13.10
2022-09-30T00:22:19.263Z,12.90
2022-09-30T00:23:19.271Z,15.30
2022-09-30T00:24:19.249Z,13.80
2022-09-30T00:25:19.243Z,16.00
2022-09-30T00:26:19.534Z,13.80
2022-09-30T00:27:19.533Z,14.90
2022-09-30T00:28:19.214Z,14.30
2022-09-30T00:29:20.002Z,11.90
2022-09-30T00:30:19.202Z,12.80
2022-09-30T00:31:19.221Z,12.10
2022-09-30T00:32:19.164Z,12.50
2022-09-30T00:33:19.161Z,12.50
2022-09-30T00:34:19.141Z,13.80
2022-09-30T00:35:22.458Z,10.10
2022-09-30T00:36:19.113Z,13.20
2022-09-30T00:37:19.110Z,11.10
2022-09-30T00:38:19.091Z,10.80
2022-09-30T00:39:19.266Z,13.90
2022-09-30T00:40:19.086Z,12.30
2022-09-30T00:41:19.072Z,11.80
2022-09-30T00:42:19.050Z,11.10
2022-09-30T00:43:19.051Z,10.50
2022-09-30T00:44:19.021Z,10.10
2022-09-30T00:45:19.035Z,13.90
2022-09-30T00:46:19.026Z,10.60
2022-09-30T00:47:19.001Z,12.90
2022-09-30T00:48:19.880Z,10.20
2022-09-30T00:49:19.074Z,10.10
2022-09-30T00:50:19.692Z,11.20
2022-09-30T00:51:19.001Z,11.50
2022-09-30T00:52:19.081Z,12.10
2022-09-30T00:53:19.122Z,10.90
2022-09-30T00:54:18.929Z,9.30
2022-09-30T00:55:19.149Z,11.50
2022-09-30T00:56:18.892Z,9.60
2022-09-30T00:57:18.899Z,10.10
2022-09-30T00:58:18.872Z,11.50
2022-09-30T00:59:18.955Z,9.10
2022-09-30T01:00:18.839Z,8.00
2022-09-30T01:01:18.903Z,10.80
2022-09-30T01:02:18.856Z,10.00
2022-09-30T01:03:18.828Z,10.60
2022-09-30T01:04:18.801Z,11.30
2022-09-30T01:05:18.810Z,13.40
2022-09-30T01:06:18.797Z,13.60
2022-09-30T01:07:18.769Z,13.40
2022-09-30T01:08:18.772Z,14.00
2022-09-30T01:09:18.877Z,9.70
2022-09-30T01:10:18.765Z,9.40
2022-09-30T01:11:18.736Z,11.30
2022-09-30T01:12:18.795Z,8.80
2022-09-30T01:13:18.705Z,9.60
2022-09-30T01:14:18.701Z,9.50
2022-09-30T01:15:18.677Z,9.60
2022-09-30T01:16:18.718Z,10.80
2022-09-30T01:17:18.657Z,11.50
2022-09-30T01:18:18.668Z,12.20
2022-09-30T01:19:18.656Z,10.20
2022-09-30T01:20:18.646Z,9.90
2022-09-30T01:21:18.636Z,11.10
2022-09-30T01:22:18.620Z,10.10
2022-09-30T01:23:18.594Z,11.10
2022-09-30T01:24:18.598Z,10.60
2022-09-30T01:25:18.574Z,12.00
2022-09-30T01:26:18.577Z,9.70
2022-09-30T01:27:18.557Z,10.50
2022-09-30T01:28:18.566Z,9.30
2022-09-30T01:29:18.599Z,10.30
2022-09-30T01:30:19.437Z,9.50
2022-09-30T01:31:18.592Z,10.60
2022-09-30T01:32:18.506Z,9.90
2022-09-30T01:33:18.478Z,9.80
2022-09-30T01:34:18.484Z,10.40
2022-09-30T01:35:18.458Z,10.50
2022-09-30T01:36:18.484Z,9.60
2022-09-30T01:37:18.435Z,9.90
2022-09-30T01:38:19.180Z,9.00
2022-09-30T01:39:18.477Z,11.10
2022-09-30T01:40:18.424Z,8.40
2022-09-30T01:41:18.412Z,10.60
2022-09-30T01:42:18.393Z,12.10
2022-09-30T01:43:18.374Z,9.80
2022-09-30T01:44:18.374Z,10.00
2022-09-30T01:45:18.346Z,10.10
2022-09-30T01:46:18.388Z,9.80
2022-09-30T01:47:18.333Z,12.80
2022-09-30T01:48:18.324Z,9.60
2022-09-30T01:49:18.415Z,10.50
2022-09-30T01:50:19.055Z,9.90
2022-09-30T01:51:19.215Z,10.00
2022-09-30T01:52:18.453Z,9.30
2022-09-30T01:53:18.253Z,9.30
2022-09-30T01:54:19.183Z,9.30
2022-09-30T01:55:18.255Z,9.00
2022-09-30T01:58:51.802Z,11.90
2022-09-30T01:59:59.380Z,12.40
2022-09-30T02:00:51.840Z,10.90
2022-09-30T02:01:52.751Z,9.40
2022-09-30T02:02:52.612Z,11.60
2022-09-30T02:03:51.767Z,11.00
2022-09-30T02:04:51.764Z,10.60
2022-09-30T02:05:52.276Z,12.70
2022-09-30T02:06:51.726Z,12.90
2022-09-30T02:07:51.712Z,13.90
2022-09-30T02:08:51.694Z,9.60
2022-09-30T02:09:51.694Z,11.70
2022-09-30T02:10:51.666Z,10.70
2022-09-30T02:11:51.663Z,11.70
2022-09-30T02:12:51.646Z,14.40
2022-09-30T02:13:51.653Z,11.80
2022-09-30T02:14:51.613Z,11.30
2022-09-30T02:15:51.700Z,13.70
2022-09-30T02:16:51.607Z,11.60
2022-09-30T02:17:51.704Z,15.20
2022-09-30T02:18:51.574Z,12.00
2022-09-30T02:19:51.582Z,10.30
2022-09-30T02:20:51.552Z,14.60
2022-09-30T02:21:51.571Z,14.60
2022-09-30T02:22:51.573Z,11.80
2022-09-30T02:23:51.556Z,14.50
2022-09-30T02:24:51.514Z,13.30
2022-09-30T02:25:51.531Z,12.50
2022-09-30T02:26:51.501Z,13.50
2022-09-30T02:27:51.503Z,10.20
2022-09-30T02:28:51.463Z,13.10
2022-09-30T02:29:51.465Z,10.60
2022-09-30T02:30:51.477Z,10.10
2022-09-30T02:31:51.500Z,12.40
2022-09-30T02:32:51.420Z,10.60
2022-09-30T02:33:51.410Z,10.90
2022-09-30T02:34:51.420Z,11.90
2022-09-30T02:35:51.381Z,11.00
2022-09-30T02:36:51.392Z,10.30
2022-09-30T02:37:51.359Z,10.40
2022-09-30T02:38:51.370Z,9.40
2022-09-30T02:39:51.359Z,9.80
2022-09-30T02:40:51.341Z,10.50
2022-09-30T02:41:51.322Z,8.70
2022-09-30T02:42:51.329Z,9.60
2022-09-30T02:43:51.490Z,10.50
2022-09-30T02:44:51.309Z,9.30
2022-09-30T02:45:51.282Z,10.40
2022-09-30T02:46:51.323Z,9.00
2022-09-30T02:47:51.248Z,8.90
2022-09-30T02:48:51.258Z,9.20
2022-09-30T02:49:51.226Z,9.80
2022-09-30T02:50:51.228Z,9.10
2022-09-30T02:51:51.207Z,10.80
2022-09-30T02:52:51.212Z,8.80
2022-09-30T02:53:51.179Z,8.80
2022-09-30T02:54:51.190Z,10.30
2022-09-30T02:55:51.189Z,10.50
2022-09-30T02:56:51.170Z,12.40
2022-09-30T02:57:51.138Z,9.10
2022-09-30T02:58:51.145Z,11.20
2022-09-30T02:59:51.119Z,9.70
2022-09-30T03:00:51.156Z,10.20
2022-09-30T03:01:51.184Z,8.70
2022-09-30T03:02:51.103Z,13.30
2022-09-30T03:03:51.239Z,11.20
2022-09-30T03:04:51.443Z,12.30
2022-09-30T03:05:51.056Z,11.30
2022-09-30T03:06:51.065Z,10.30
2022-09-30T03:07:51.037Z,9.50
2022-09-30T03:08:51.026Z,10.70
2022-09-30T03:09:51.073Z,9.50
2022-09-30T03:10:51.039Z,11.30
2022-09-30T03:11:50.987Z,10.10
2022-09-30T03:12:50.978Z,9.90
2022-09-30T03:13:51.068Z,10.50
2022-09-30T03:14:50.957Z,9.00
2022-09-30T03:15:50.962Z,10.30
2022-09-30T03:16:50.936Z,10.00
2022-09-30T03:17:50.916Z,10.60
2022-09-30T03:18:50.915Z,13.90
2022-09-30T03:19:50.886Z,10.00
2022-09-30T03:20:50.902Z,10.70
2022-09-30T03:21:50.865Z,9.50
2022-09-30T03:22:50.873Z,9.90
2022-09-30T03:23:50.857Z,10.10
2022-09-30T03:24:51.654Z,9.00
2022-09-30T03:25:50.840Z,13.40
2022-09-30T03:26:50.835Z,10.50
2022-09-30T03:27:50.798Z,12.40
2022-09-30T03:28:50.883Z,10.40
2022-09-30T03:29:50.795Z,12.10
2022-09-30T03:30:50.776Z,13.10
2022-09-30T03:31:50.821Z,9.40
2022-09-30T03:32:50.753Z,11.50
2022-09-30T03:33:50.778Z,9.80
2022-09-30T03:34:51.142Z,11.40
2022-09-30T03:35:50.713Z,12.30
2022-09-30T03:36:50.799Z,11.70
2022-09-30T03:37:50.706Z,14.90
2022-09-30T03:38:50.690Z,11.10
2022-09-30T03:39:50.671Z,12.10
2022-09-30T03:40:50.670Z,11.40
2022-09-30T03:41:50.642Z,9.50
2022-09-30T03:42:50.642Z,13.70
2022-09-30T03:43:51.272Z,11.60
2022-09-30T03:44:50.633Z,11.70
2022-09-30T03:45:50.634Z,8.70
2022-09-30T03:46:50.676Z,10.80
2022-09-30T03:47:50.572Z,12.10
2022-09-30T03:48:50.581Z,9.80
2022-09-30T03:49:50.553Z,11.60
2022-09-30T03:50:50.554Z,10.20
2022-09-30T03:51:51.105Z,10.00
2022-09-30T03:52:50.541Z,11.50
2022-09-30T03:53:50.501Z,11.50
2022-09-30T03:54:50.519Z,13.30
2022-09-30T03:55:50.482Z,13.30
2022-09-30T03:56:50.531Z,16.40
2022-09-30T03:57:50.471Z,11.70
2022-09-30T03:58:50.460Z,12.50
2022-09-30T03:59:50.444Z,11.80
2022-09-30T04:00:50.540Z,12.50
2022-09-30T04:01:50.516Z,12.50
2022-09-30T04:02:53.575Z,13.30
2022-09-30T04:03:51.407Z,10.90
2022-09-30T04:04:50.419Z,11.40
2022-09-30T04:05:51.306Z,12.90
2022-09-30T04:06:50.383Z,12.10
2022-09-30T04:07:50.361Z,11.30
2022-09-30T04:08:50.372Z,11.50
2022-09-30T04:09:51.206Z,11.10
2022-09-30T04:10:50.339Z,15.00
2022-09-30T04:11:50.318Z,18.40
2022-09-30T04:12:50.309Z,18.20
2022-09-30T04:13:50.286Z,18.10
2022-09-30T04:14:50.289Z,17.10
2022-09-30T04:15:50.334Z,17.00
2022-09-30T04:16:53.808Z,16.10
2022-09-30T04:17:50.239Z,17.10
2022-09-30T04:18:50.248Z,15.20
2022-09-30T04:19:50.229Z,16.40
2022-09-30T04:20:50.227Z,15.00
2022-09-30T04:21:50.193Z,14.40
2022-09-30T04:22:50.198Z,15.20
2022-09-30T04:23:50.170Z,16.70
2022-09-30T04:24:50.179Z,14.20
2022-09-30T04:25:50.917Z,12.20
2022-09-30T04:26:50.167Z,13.20
2022-09-30T04:27:50.138Z,14.20
2022-09-30T04:28:50.129Z,13.90
2022-09-30T04:29:50.106Z,10.90
2022-09-30T04:30:50.110Z,13.30
2022-09-30T04:31:50.128Z,10.90
2022-09-30T04:32:50.086Z,11.00
2022-09-30T04:33:50.056Z,14.60
2022-09-30T04:34:50.066Z,12.00
2022-09-30T04:35:50.035Z,11.40
2022-09-30T04:36:50.075Z,9.70
2022-09-30T04:37:50.017Z,9.60
2022-09-30T04:38:50.017Z,11.60
2022-09-30T04:39:50.006Z,10.60
2022-09-30T04:40:50.004Z,9.40
2022-09-30T04:41:49.984Z,11.50
2022-09-30T04:42:49.978Z,13.70
2022-09-30T04:43:49.963Z,9.90
2022-09-30T04:44:49.964Z,9.50
2022-09-30T04:45:50.809Z,9.00
2022-09-30T04:46:50.185Z,8.00
2022-09-30T04:47:49.916Z,9.00
2022-09-30T04:48:49.914Z,10.80
2022-09-30T04:49:49.885Z,9.40
2022-09-30T04:50:49.903Z,9.70
2022-09-30T04:51:49.866Z,8.30
2022-09-30T04:52:49.872Z,10.00
2022-09-30T04:53:49.844Z,11.20
2022-09-30T04:54:49.859Z,11.00
2022-09-30T04:55:49.830Z,8.40
2022-09-30T04:56:49.833Z,9.10
2022-09-30T04:57:49.806Z,9.30
2022-09-30T04:58:49.795Z,9.20
2022-09-30T04:59:49.788Z,9.00
2022-09-30T05:00:49.850Z,11.20
2022-09-30T05:01:49.770Z,8.80
2022-09-30T05:02:49.762Z,8.80
2022-09-30T05:03:49.731Z,17.00
2022-09-30T05:04:49.825Z,11.60
2022-09-30T05:05:50.102Z,10.30
2022-09-30T05:06:50.564Z,9.10
2022-09-30T05:07:49.723Z,10.10
2022-09-30T05:08:49.726Z,11.60
2022-09-30T05:09:49.661Z,11.20
2022-09-30T05:10:49.670Z,10.80
2022-09-30T05:11:49.644Z,10.40
2022-09-30T05:12:49.643Z,10.30
2022-09-30T05:13:49.619Z,10.30
2022-09-30T05:14:49.629Z,12.30
2022-09-30T05:15:49.680Z,11.90
2022-09-30T05:16:49.601Z,10.00
2022-09-30T05:17:49.571Z,11.10
2022-09-30T05:18:49.581Z,13.40
2022-09-30T05:19:49.560Z,11.10
2022-09-30T05:20:49.561Z,11.10
2022-09-30T05:21:49.541Z,9.40
2022-09-30T05:22:49.529Z,11.70
2022-09-30T05:23:49.514Z,10.70
2022-09-30T05:24:49.521Z,11.70
2022-09-30T05:25:49.491Z,10.90
2022-09-30T05:26:49.582Z,11.60
2022-09-30T05:27:49.471Z,10.30
2022-09-30T05:28:49.480Z,10.00
2022-09-30T05:29:49.450Z,10.40
2022-09-30T05:30:49.459Z,10.50
2022-09-30T05:31:49.507Z,9.30
2022-09-30T05:32:49.446Z,12.90
2022-09-30T05:33:49.399Z,15.30
2022-09-30T05:34:49.408Z,10.00
2022-09-30T05:35:49.397Z,11.30
2022-09-30T05:36:49.392Z,9.80
2022-09-30T05:37:49.358Z,10.70
2022-09-30T05:38:49.368Z,11.90
2022-09-30T05:39:49.345Z,10.50
2022-09-30T05:40:49.331Z,11.90
2022-09-30T05:41:49.341Z,13.40
2022-09-30T05:42:49.318Z,21.80
2022-09-30T05:43:49.297Z,16.80
2022-09-30T05:44:49.287Z,15.90
2022-09-30T05:45:49.267Z,18.10
2022-09-30T05:46:49.331Z,16.60
2022-09-30T05:47:49.267Z,14.80
2022-09-30T05:48:49.259Z,17.90
2022-09-30T05:49:51.152Z,18.30
2022-09-30T05:50:50.217Z,19.10
2022-09-30T05:51:49.207Z,23.70
2022-09-30T05:52:49.205Z,19.40
2022-09-30T05:53:49.189Z,21.00
2022-09-30T05:54:49.198Z,22.40
2022-09-30T05:55:49.155Z,20.80
2022-09-30T05:56:49.166Z,21.10
2022-09-30T05:57:49.156Z,22.00
2022-09-30T05:58:49.152Z,23.80
2022-09-30T05:59:49.130Z,22.10
2022-09-30T06:00:49.140Z,23.80
2022-09-30T06:01:49.183Z,23.60
2022-09-30T06:02:49.160Z,22.90
2022-09-30T06:03:49.073Z,22.50
2022-09-30T06:04:49.074Z,25.90
2022-09-30T06:05:49.055Z,23.00
2022-09-30T06:06:49.072Z,26.40
2022-09-30T06:07:49.033Z,31.50
2022-09-30T06:08:49.027Z,30.80
2022-09-30T06:09:49.097Z,28.10
2022-09-30T06:10:49.026Z,24.60
2022-09-30T06:11:48.984Z,26.80
2022-09-30T06:12:48.985Z,27.10
2022-09-30T06:13:48.954Z,25.50
2022-09-30T06:14:48.957Z,28.30
2022-09-30T06:15:48.967Z,26.60
2022-09-30T06:16:49.010Z,28.50
2022-09-30T06:17:48.908Z,24.20
2022-09-30T06:18:48.914Z,27.30
2022-09-30T06:19:48.892Z,25.60
2022-09-30T06:20:48.894Z,25.30
2022-09-30T06:21:48.877Z,28.50
2022-09-30T06:22:48.878Z,28.40
2022-09-30T06:23:48.848Z,28.70
2022-09-30T06:24:52.800Z,29.40
2022-09-30T06:25:49.821Z,30.50
2022-09-30T06:26:48.821Z,32.30
2022-09-30T06:27:48.808Z,31.30
2022-09-30T06:28:48.822Z,31.10
2022-09-30T06:29:48.783Z,31.10
2022-09-30T06:30:48.782Z,35.30
2022-09-30T06:31:48.972Z,31.10
2022-09-30T06:32:48.761Z,35.90
2022-09-30T06:33:48.730Z,34.50
2022-09-30T06:34:48.742Z,29.30
2022-09-30T06:35:48.711Z,32.50
2022-09-30T06:36:48.702Z,31.00
2022-09-30T06:37:48.683Z,31.00
2022-09-30T06:38:48.692Z,27.60
2022-09-30T06:39:48.661Z,30.50
2022-09-30T06:40:48.673Z,31.60
2022-09-30T06:41:48.651Z,31.90
2022-09-30T06:42:48.640Z,28.30
2022-09-30T06:43:59.969Z,26.40
2022-09-30T06:44:53.195Z,24.40
2022-09-30T06:45:48.682Z,27.40
2022-09-30T06:46:53.984Z,26.00
2022-09-30T06:47:58.927Z,25.40
2022-09-30T06:48:49.773Z,31.30
2022-09-30T06:49:50.013Z,24.00
2022-09-30T06:51:00.128Z,25.40
2022-09-30T06:51:49.558Z,21.80
2022-09-30T06:52:48.518Z,21.80
2022-09-30T06:53:53.124Z,21.50
2022-09-30T06:54:48.498Z,22.60
2022-09-30T06:55:48.506Z,21.40
2022-09-30T06:56:48.472Z,20.70
2022-09-30T06:57:48.478Z,27.50
2022-09-30T06:58:48.460Z,21.90
2022-09-30T06:59:48.448Z,23.50
2022-09-30T07:00:48.481Z,21.10
2022-09-30T07:01:48.482Z,19.80
2022-09-30T07:02:48.418Z,16.60
2022-09-30T07:03:51.493Z,20.50
2022-09-30T07:04:49.387Z,15.60
2022-09-30T07:05:48.388Z,14.20
2022-09-30T07:06:48.376Z,14.30
2022-09-30T07:07:48.367Z,14.00
2022-09-30T07:08:49.100Z,14.20
2022-09-30T07:09:48.418Z,13.10
2022-09-30T07:10:48.338Z,13.90
2022-09-30T07:11:48.337Z,11.30
2022-09-30T07:12:48.307Z,16.00
2022-09-30T07:13:48.326Z,12.70
2022-09-30T07:14:48.275Z,13.10
2022-09-30T07:15:48.275Z,11.60
2022-09-30T07:16:48.351Z,11.50
2022-09-30T07:17:48.247Z,12.50
2022-09-30T07:18:48.218Z,11.60
2022-09-30T07:19:48.228Z,12.60
2022-09-30T07:20:48.197Z,12.00
2022-09-30T07:21:48.227Z,11.30
2022-09-30T07:22:48.196Z,9.80
2022-09-30T07:23:48.417Z,12.60
2022-09-30T07:24:48.154Z,9.90
2022-09-30T07:25:48.191Z,12.10
2022-09-30T07:26:48.134Z,11.70
2022-09-30T07:27:48.138Z,13.80
2022-09-30T07:28:48.965Z,10.70
2022-09-30T07:30:08.416Z,10.80
2022-09-30T07:30:49.106Z,10.00
2022-09-30T07:31:48.110Z,10.50
2022-09-30T07:32:48.099Z,10.90
2022-09-30T07:33:48.085Z,10.40
2022-09-30T07:34:48.064Z,10.80
2022-09-30T07:35:48.047Z,8.00
2022-09-30T07:36:48.016Z,15.50
2022-09-30T07:37:48.014Z,9.50
2022-09-30T07:38:47.994Z,8.50
2022-09-30T07:39:47.994Z,13.10
2022-09-30T07:40:47.971Z,8.80
2022-09-30T07:41:47.963Z,9.80
2022-09-30T07:42:47.944Z,9.30
2022-09-30T07:43:47.953Z,10.90
2022-09-30T07:44:47.931Z,7.30
2022-09-30T07:45:47.962Z,10.60
2022-09-30T07:46:47.894Z,10.30
2022-09-30T07:47:53.234Z,10.70
2022-09-30T07:48:48.876Z,10.90
2022-09-30T07:49:48.748Z,8.70
2022-09-30T07:50:47.943Z,10.80
2022-09-30T07:51:47.883Z,10.30
2022-09-30T07:52:47.834Z,9.00
2022-09-30T07:53:47.833Z,10.10
2022-09-30T07:54:50.609Z,8.30
2022-09-30T07:55:47.811Z,14.80
2022-09-30T07:57:48.793Z,10.60
2022-09-30T07:58:47.776Z,7.50
2022-09-30T07:59:47.771Z,9.50
2022-09-30T08:00:47.810Z,7.50
2022-09-30T08:01:47.742Z,9.70
2022-09-30T08:02:47.722Z,12.30
2022-09-30T08:03:47.730Z,8.70
2022-09-30T08:04:47.699Z,9.70
2022-09-30T08:05:47.745Z,12.90
2022-09-30T08:06:47.674Z,8.70
2022-09-30T08:07:47.674Z,9.10
2022-09-30T08:08:47.655Z,10.20
2022-09-30T08:09:47.730Z,12.40
2022-09-30T08:10:48.395Z,10.10
2022-09-30T08:11:47.653Z,10.20
2022-09-30T08:12:47.593Z,8.90
2022-09-30T08:13:47.599Z,10.50
2022-09-30T08:14:47.571Z,9.90
2022-09-30T08:15:47.592Z,9.40
2022-09-30T08:16:48.146Z,11.80
2022-09-30T08:17:47.560Z,15.10
2022-09-30T08:18:47.542Z,9.10
2022-09-30T08:19:47.551Z,13.90
2022-09-30T08:20:47.502Z,9.10
2022-09-30T08:21:47.588Z,13.10
2022-09-30T08:22:47.493Z,12.30
2022-09-30T08:23:47.489Z,11.20
2022-09-30T08:24:47.463Z,9.80
2022-09-30T08:25:47.473Z,10.50
2022-09-30T08:26:47.502Z,8.90
2022-09-30T08:27:47.450Z,7.80
2022-09-30T08:28:47.421Z,11.20
2022-09-30T08:29:55.037Z,9.40
2022-09-30T08:30:49.159Z,9.60
2022-09-30T08:31:47.485Z,8.40
2022-09-30T08:32:47.376Z,9.20
2022-09-30T08:33:47.420Z,10.00
2022-09-30T08:34:47.355Z,9.70
2022-09-30T08:35:47.352Z,9.20
2022-09-30T08:36:47.333Z,10.90
2022-09-30T08:37:47.332Z,11.60
2022-09-30T08:38:47.315Z,11.40
2022-09-30T08:39:47.325Z,12.40
2022-09-30T08:40:47.285Z,14.60
2022-09-30T08:41:47.282Z,14.10
2022-09-30T08:42:51.691Z,14.90
2022-09-30T08:43:48.261Z,12.90
2022-09-30T08:44:47.260Z,12.00
2022-09-30T08:45:47.302Z,11.50
2022-09-30T08:46:47.223Z,11.60
2022-09-30T08:47:47.218Z,13.90
2022-09-30T08:48:47.190Z,12.10
2022-09-30T08:49:47.201Z,12.10
2022-09-30T08:50:47.196Z,9.40
2022-09-30T08:51:47.912Z,10.80
2022-09-30T08:52:49.268Z,9.30
2022-09-30T08:53:47.160Z,7.80
2022-09-30T08:54:47.119Z,7.30
2022-09-30T08:55:47.130Z,10.50
2022-09-30T08:56:47.102Z,7.10
2022-09-30T08:57:47.737Z,6.30
2022-09-30T08:58:47.090Z,6.60
2022-09-30T08:59:47.079Z,7.90
2022-09-30T09:00:47.422Z,11.60
2022-09-30T09:01:47.059Z,7.00
2022-09-30T09:02:47.088Z,10.30
2022-09-30T09:03:47.038Z,6.80
2022-09-30T09:04:47.020Z,7.70
2022-09-30T09:05:49.948Z,8.90
2022-09-30T09:06:47.999Z,10.60
2022-09-30T09:07:47.011Z,8.00
2022-09-30T09:08:46.958Z,7.40
2022-09-30T09:09:46.983Z,8.20
2022-09-30T09:10:47.010Z,7.60
2022-09-30T09:11:47.779Z,6.60
2022-09-30T09:12:47.091Z,9.10
2022-09-30T09:13:46.957Z,8.10
2022-09-30T09:14:46.889Z,7.40
2022-09-30T09:15:46.900Z,7.90
2022-09-30T09:16:46.922Z,7.90
2022-09-30T09:18:11.011Z,6.70
2022-09-30T09:18:47.847Z,6.80
2022-09-30T09:19:46.871Z,5.30
2022-09-30T09:20:46.841Z,7.80
2022-09-30T09:21:46.841Z,5.30
2022-09-30T09:22:46.838Z,5.20
2022-09-30T09:23:46.803Z,6.40
2022-09-30T09:24:46.776Z,4.40
2022-09-30T09:25:46.787Z,6.20
2022-09-30T09:26:46.762Z,7.20
2022-09-30T09:27:46.817Z,4.10
2022-09-30T09:28:49.160Z,4.40
2022-09-30T09:29:47.730Z,5.40
2022-09-30T09:30:46.708Z,5.30
2022-09-30T09:31:46.776Z,3.00
2022-09-30T09:32:46.722Z,6.90
2022-09-30T09:33:46.698Z,3.10
2022-09-30T09:34:46.671Z,4.90
2022-09-30T09:35:46.677Z,5.60
2022-09-30T09:36:46.648Z,5.80
2022-09-30T09:37:46.645Z,6.40
2022-09-30T09:38:46.616Z,4.00
2022-09-30T09:39:46.619Z,4.00
2022-09-30T09:40:46.599Z,3.40
2022-09-30T09:41:46.620Z,3.50
2022-09-30T09:42:46.665Z,2.60
2022-09-30T09:43:46.583Z,3.10
2022-09-30T09:44:46.552Z,3.30
2022-09-30T09:45:46.588Z,3.30
2022-09-30T09:46:46.530Z,4.10
2022-09-30T09:47:46.543Z,2.80
2022-09-30T09:48:46.521Z,2.30
2022-09-30T09:49:46.530Z,2.80
2022-09-30T09:50:46.497Z,1.60
2022-09-30T09:51:46.499Z,4.80
2022-09-30T09:52:46.623Z,3.30
2022-09-30T09:53:46.502Z,4.00
2022-09-30T09:54:46.443Z,4.10
2022-09-30T09:55:46.459Z,2.90
2022-09-30T09:56:46.428Z,3.90
2022-09-30T09:57:46.420Z,2.10
2022-09-30T09:58:46.446Z,2.60
2022-09-30T09:59:46.399Z,3.70
2022-09-30T10:00:46.446Z,3.80
2022-09-30T10:01:46.464Z,5.20
2022-09-30T10:02:46.372Z,6.10
2022-09-30T10:03:46.360Z,3.50
2022-09-30T10:04:46.330Z,3.60
2022-09-30T10:05:46.350Z,3.80
2022-09-30T10:06:47.117Z,4.70
2022-09-30T10:07:46.311Z,5.60
2022-09-30T10:08:46.289Z,3.00
2022-09-30T10:09:46.288Z,3.00
2022-09-30T10:10:46.272Z,4.10
2022-09-30T10:11:46.271Z,5.90
2022-09-30T10:12:47.049Z,4.40
2022-09-30T10:13:46.334Z,2.40
2022-09-30T10:14:46.352Z,4.00
2022-09-30T10:15:46.327Z,3.60
2022-09-30T10:16:46.200Z,2.30
2022-09-30T10:17:46.211Z,2.70
2022-09-30T10:18:46.170Z,3.40
2022-09-30T10:19:46.170Z,2.50
2022-09-30T10:21:46.161Z,3.90
2022-09-30T10:22:46.121Z,4.00
2022-09-30T10:23:46.120Z,3.40
2022-09-30T10:24:46.113Z,3.80
2022-09-30T10:25:46.101Z,4.90
2022-09-30T10:26:48.859Z,3.20
2022-09-30T10:27:46.154Z,4.60
2022-09-30T10:28:46.062Z,2.70
2022-09-30T10:29:46.081Z,3.30
2022-09-30T10:30:46.049Z,3.80
2022-09-30T10:31:46.141Z,3.70
2022-09-30T10:32:46.050Z,4.00
2022-09-30T10:33:46.018Z,3.30
2022-09-30T10:34:46.726Z,5.80
2022-09-30T10:35:45.998Z,3.50
2022-09-30T10:36:45.959Z,2.60
2022-09-30T10:37:49.580Z,4.40
2022-09-30T10:38:46.943Z,4.10
2022-09-30T10:39:45.936Z,2.80
2022-09-30T10:40:45.907Z,4.40
2022-09-30T10:41:45.909Z,3.40
2022-09-30T10:42:45.887Z,4.90
2022-09-30T10:43:45.890Z,3.00
2022-09-30T10:44:45.870Z,3.60
2022-09-30T10:46:01.314Z,3.60
2022-09-30T10:46:46.894Z,3.80
2022-09-30T10:47:45.849Z,3.20
2022-09-30T10:48:45.830Z,2.60
2022-09-30T10:49:45.836Z,2.80
2022-09-30T10:50:45.807Z,3.00
2022-09-30T10:51:45.800Z,2.60
2022-09-30T10:52:45.794Z,3.10
2022-09-30T10:53:45.793Z,2.10
2022-09-30T10:54:46.352Z,3.10
2022-09-30T10:55:45.748Z,5.40
2022-09-30T10:56:45.748Z,4.20
2022-09-30T10:57:45.744Z,4.00
2022-09-30T10:58:45.733Z,4.50
2022-09-30T10:59:45.808Z,3.70
2022-09-30T11:00:45.782Z,2.70
2022-09-30T11:01:45.803Z,4.20
2022-09-30T11:02:48.221Z,3.20
2022-09-30T11:03:45.714Z,3.70
2022-09-30T11:04:45.628Z,4.90
2022-09-30T11:05:45.629Z,1.70
2022-09-30T11:06:45.638Z,2.60
2022-09-30T11:07:45.600Z,3.60
2022-09-30T11:08:45.604Z,1.70
2022-09-30T11:09:45.584Z,2.40
2022-09-30T11:10:45.588Z,2.90
2022-09-30T11:11:45.569Z,3.90
2022-09-30T11:12:45.561Z,3.70
2022-09-30T11:13:45.540Z,3.10
2022-09-30T11:14:46.473Z,5.70
2022-09-30T11:15:45.511Z,3.00
2022-09-30T11:16:45.555Z,2.20
2022-09-30T11:17:45.510Z,2.80
2022-09-30T11:18:45.507Z,2.40
2022-09-30T11:19:45.461Z,3.70
2022-09-30T11:20:45.481Z,2.40
2022-09-30T11:21:45.443Z,2.40
2022-09-30T11:22:45.446Z,2.90
2022-09-30T11:23:45.437Z,2.80
2022-09-30T11:24:45.459Z,3.90
2022-09-30T11:25:45.405Z,2.10
2022-09-30T11:26:45.407Z,1.70
2022-09-30T11:27:45.432Z,2.70
2022-09-30T11:28:45.383Z,3.10
2022-09-30T11:29:45.365Z,1.80
2022-09-30T11:30:45.380Z,2.40
2022-09-30T11:31:45.394Z,2.80
2022-09-30T11:32:45.337Z,1.40
2022-09-30T11:33:45.319Z,3.40
2022-09-30T11:34:45.324Z,2.40
2022-09-30T11:35:45.298Z,1.10
2022-09-30T11:36:45.300Z,2.50
2022-09-30T11:37:45.270Z,2.50
2022-09-30T11:38:45.263Z,4.60
2022-09-30T11:39:45.242Z,2.40
2022-09-30T11:40:45.250Z,2.90
2022-09-30T11:41:45.239Z,2.60
2022-09-30T11:42:45.229Z,5.60
2022-09-30T11:43:45.202Z,3.60
2022-09-30T11:44:45.212Z,6.90
2022-09-30T11:45:45.229Z,4.30
2022-09-30T11:46:45.172Z,2.50
2022-09-30T11:47:45.160Z,3.20
2022-09-30T11:48:45.184Z,6.50
2022-09-30T11:49:45.134Z,3.20
2022-09-30T11:50:45.130Z,3.10
2022-09-30T11:51:45.103Z,3.40
2022-09-30T11:52:45.135Z,2.70
2022-09-30T11:53:45.089Z,3.60
2022-09-30T11:54:45.099Z,1.90
2022-09-30T11:55:45.293Z,2.80
2022-09-30T11:56:45.063Z,1.30
2022-09-30T11:57:45.034Z,3.40
2022-09-30T11:58:45.041Z,2.70
2022-09-30T11:59:45.020Z,2.90
2022-09-30T12:00:47.245Z,2.40
2022-09-30T12:01:52.098Z,2.30
2022-09-30T12:02:45.056Z,8.50
2022-09-30T12:03:44.984Z,5.80
2022-09-30T12:04:44.981Z,3.10
2022-09-30T12:05:44.949Z,4.00
2022-09-30T12:06:44.950Z,2.50
2022-09-30T12:07:44.942Z,2.90
2022-09-30T12:08:44.923Z,8.50
2022-09-30T12:09:44.892Z,17.50
2022-09-30T12:10:44.928Z,4.80
2022-09-30T12:11:44.891Z,4.00
2022-09-30T12:12:44.880Z,3.40
2022-09-30T12:13:44.862Z,2.20
2022-09-30T12:14:44.864Z,3.40
2022-09-30T12:15:44.839Z,1.90
2022-09-30T12:16:44.927Z,2.80
2022-09-30T12:17:44.811Z,2.60
2022-09-30T12:18:44.841Z,1.40
2022-09-30T12:19:44.781Z,2.00
2022-09-30T12:20:44.788Z,2.90
2022-09-30T12:21:44.781Z,3.40
2022-09-30T12:22:44.770Z,1.80
2022-09-30T12:23:45.500Z,4.60
2022-09-30T12:24:44.904Z,3.40
2022-09-30T12:25:44.781Z,2.90
2022-09-30T12:26:44.831Z,2.90
2022-09-30T12:27:44.818Z,1.40
2022-09-30T12:28:44.819Z,3.00
2022-09-30T12:29:44.969Z,4.40
2022-09-30T12:30:45.034Z,2.50
2022-09-30T12:31:44.817Z,13.60
2022-09-30T12:32:44.724Z,6.20
2022-09-30T12:33:44.660Z,4.20
2022-09-30T12:34:44.764Z,3.50
2022-09-30T12:35:44.672Z,2.00
2022-09-30T12:36:44.671Z,3.50
2022-09-30T12:37:44.625Z,2.90
2022-09-30T12:38:44.687Z,6.10
2022-09-30T12:39:44.563Z,2.10
2022-09-30T12:40:48.922Z,1.60
2022-09-30T12:41:45.545Z,1.90
2022-09-30T12:42:44.622Z,1.30
2022-09-30T12:43:44.583Z,1.00
2022-09-30T12:44:44.537Z,1.40
2022-09-30T12:45:44.546Z,2.20
2022-09-30T12:46:44.491Z,1.60
2022-09-30T12:47:44.472Z,2.80
2022-09-30T12:48:44.499Z,1.60
2022-09-30T12:49:44.458Z,5.20
2022-09-30T12:50:44.539Z,2.20
2022-09-30T12:51:44.422Z,0.70
2022-09-30T12:52:44.431Z,2.50
2022-09-30T12:53:44.411Z,1.10
2022-09-30T12:54:44.427Z,1.50
2022-09-30T12:55:44.392Z,1.30
2022-09-30T12:56:44.400Z,1.00
2022-09-30T12:57:44.396Z,3.60
2022-09-30T12:58:44.364Z,2.10
2022-09-30T12:59:44.384Z,1.30
2022-09-30T13:00:44.397Z,2.10
2022-09-30T13:01:44.311Z,2.00
2022-09-30T13:02:44.383Z,1.20
2022-09-30T13:03:44.313Z,1.70
2022-09-30T13:04:44.311Z,2.50
2022-09-30T13:05:44.262Z,2.60
2022-09-30T13:06:44.272Z,2.00
2022-09-30T13:07:44.243Z,1.40
2022-09-30T13:08:44.272Z,1.10